Terminal Aerodrome Forecast
Issued by NWS

Home | Current Version | Previous Version | Graphics & Text | Print | Product List | Glossary On
Versions: 1 2 3 4 5 6 7 8 9 10 11 12 13
000
FTUS41 KCLE 191133
TAFFDY
TAF
KFDY 191133Z 1912/2012 36012KT 6SM -SN BKN025 OVC045
      TEMPO 1912/1913 4SM -SN BKN008
     FM191400 33012G20KT P6SM BKN045
      TEMPO 1916/1918 BKN030
     FM191800 32015G25KT P6SM SCT040
     FM192300 32008KT P6SM SKC=

USA.gov is the U.S. government's official web portal to all federal, state and local government web resources and services.